sensor_id;sensor_type;location;lat;lon;timestamp;pressure;altitude;pressure_sealevel;temperature;humidity
12763;BME280;6445;52.490;13.378;2023-03-04T00:01:28;1687.44;;;-146.10;100.00
12763;BME280;6445;52.490;13.378;2023-03-04T00:03:53;929.16;;;-146.10;100.00
12763;BME280;6445;52.490;13.378;2023-03-04T00:06:18;423.72;;;-146.10;100.00
12763;BME280;6445;52.490;13.378;2023-03-04T00:08:44;-334.34;;;-146.10;100.00
12763;BME280;6445;52.490;13.378;2023-03-04T00:11:09;-1092.22;;;-146.10;100.00
12763;BME280;6445;52.490;13.378;2023-03-04T00:13:34;-1092.22;;;-146.10;100.00
12763;BME280;6445;52.490;13.378;2023-03-04T00:15:59;-1092.22;;;-146.10;100.00
12763;BME280;6445;52.490;13.378;2023-03-04T00:18:25;-839.59;;;-146.10;100.00
12763;BME280;6445;52.490;13.378;2023-03-04T00:20:50;-586.97;;;-146.10;100.00
12763;BME280;6445;52.490;13.378;2023-03-04T00:23:16;-334.34;;;-146.10;100.00
12763;BME280;6445;52.490;13.378;2023-03-04T00:25:41;-81.66;;;-146.10;100.00
12763;BME280;6445;52.490;13.378;2023-03-04T00:28:06;171.00;;;-146.10;100.00
12763;BME280;6445;52.490;13.378;2023-03-04T00:30:32;171.00;;;-146.10;100.00
12763;BME280;6445;52.490;13.378;2023-03-04T00:32:57;171.00;;;-146.10;100.00
12763;BME280;6445;52.490;13.378;2023-03-04T00:35:23;423.72;;;-146.10;100.00
12763;BME280;6445;52.490;13.378;2023-03-04T00:37:48;676.41;;;-146.10;100.00
12763;BME280;6445;52.490;13.378;2023-03-04T00:40:13;423.72;;;-146.10;100.00
12763;BME280;6445;52.490;13.378;2023-03-04T00:42:39;676.41;;;-146.10;100.00
12763;BME280;6445;52.490;13.378;2023-03-04T00:45:05;1181.91;;;-146.10;100.00
12763;BME280;6445;52.490;13.378;2023-03-04T00:47:30;1181.91;;;-146.10;100.00
12763;BME280;6445;52.490;13.378;2023-03-04T00:49:55;1434.66;;;-146.10;100.00
12763;BME280;6445;52.490;13.378;2023-03-04T00:52:21;1940.22;;;-146.10;100.00
12763;BME280;6445;52.490;13.378;2023-03-04T00:54:46;1940.22;;;-146.10;100.00
12763;BME280;6445;52.490;13.378;2023-03-04T00:57:11;2193.03;;;-146.10;100.00
12763;BME280;6445;52.490;13.378;2023-03-04T00:59:36;2445.88;;;-146.10;100.00
12763;BME280;6445;52.490;13.378;2023-03-04T01:02:02;2698.72;;;-146.10;100.00
12763;BME280;6445;52.490;13.378;2023-03-04T01:04:27;2951.56;;;-146.10;100.00
12763;BME280;6445;52.490;13.378;2023-03-04T01:06:52;3204.44;;;-146.10;100.00
12763;BME280;6445;52.490;13.378;2023-03-04T01:09:17;3204.44;;;-146.10;100.00
12763;BME280;6445;52.490;13.378;2023-03-04T01:11:43;3457.34;;;-146.10;100.00
12763;BME280;6445;52.490;13.378;2023-03-04T01:14:08;3457.34;;;-146.10;100.00
12763;BME280;6445;52.490;13.378;2023-03-04T01:16:33;3710.25;;;-146.10;100.00
12763;BME280;6445;52.490;13.378;2023-03-04T01:18:59;3963.19;;;-146.10;100.00
12763;BME280;6445;52.490;13.378;2023-03-04T01:21:24;4216.13;;;-146.10;100.00
12763;BME280;6445;52.490;13.378;2023-03-04T01:23:49;4469.09;;;-146.10;100.00
12763;BME280;6445;52.490;13.378;2023-03-04T01:26:14;4722.06;;;-146.10;100.00
12763;BME280;6445;52.490;13.378;2023-03-04T01:28:40;4722.06;;;-146.10;100.00
12763;BME280;6445;52.490;13.378;2023-03-04T01:31:05;5481.09;;;-146.10;100.00
12763;BME280;6445;52.490;13.378;2023-03-04T01:33:30;5987.19;;;-146.10;100.00
12763;BME280;6445;52.490;13.378;2023-03-04T01:35:56;6240.28;;;-146.10;100.00
12763;BME280;6445;52.490;13.378;2023-03-04T01:38:22;6746.47;;;-146.10;100.00
12763;BME280;6445;52.490;13.378;2023-03-04T01:40:47;7252.75;;;-146.10;100.00
12763;BME280;6445;52.490;13.378;2023-03-04T01:43:18;7759.09;;;-146.10;100.00
12763;BME280;6445;52.490;13.378;2023-03-04T01:45:46;8012.28;;;-146.10;100.00
12763;BME280;6445;52.490;13.378;2023-03-04T01:48:15;8518.72;;;-146.10;100.00
12763;BME280;6445;52.490;13.378;2023-03-04T01:50:42;9025.22;;;-146.10;100.00
12763;BME280;6445;52.490;13.378;2023-03-04T01:53:16;9531.78;;;-146.10;100.00
12763;BME280;6445;52.490;13.378;2023-03-04T01:55:42;9531.78;;;-146.10;100.00
12763;BME280;6445;52.490;13.378;2023-03-04T01:58:09;10038.41;;;-146.10;100.00
12763;BME280;6445;52.490;13.378;2023-03-04T02:00:34;10545.13;;;-146.10;100.00
12763;BME280;6445;52.490;13.378;2023-03-04T02:03:04;10545.13;;;-146.10;100.00
12763;BME280;6445;52.490;13.378;2023-03-04T02:05:33;10798.50;;;-146.10;100.00
12763;BME280;6445;52.490;13.378;2023-03-04T02:07:59;10798.50;;;-146.10;100.00
12763;BME280;6445;52.490;13.378;2023-03-04T02:10:26;10291.75;;;-146.10;100.00
12763;BME280;6445;52.490;13.378;2023-03-04T02:12:52;10545.13;;;-146.10;100.00
12763;BME280;6445;52.490;13.378;2023-03-04T02:15:17;10798.50;;;-146.10;100.00
12763;BME280;6445;52.490;13.378;2023-03-04T02:17:42;11051.88;;;-146.10;100.00
12763;BME280;6445;52.490;13.378;2023-03-04T02:23:16;10291.75;;;-146.10;100.00
12763;BME280;6445;52.490;13.378;2023-03-04T02:25:49;10291.75;;;-146.10;100.00
12763;BME280;6445;52.490;13.378;2023-03-04T02:28:15;10038.41;;;-146.10;100.00
12763;BME280;6445;52.490;13.378;2023-03-04T02:30:41;9531.78;;;-146.10;100.00
12763;BME280;6445;52.490;13.378;2023-03-04T02:33:13;9531.78;;;-146.10;100.00
12763;BME280;6445;52.490;13.378;2023-03-04T02:35:39;9531.78;;;-146.10;100.00
12763;BME280;6445;52.490;13.378;2023-03-04T02:38:04;9531.78;;;-146.10;100.00
12763;BME280;6445;52.490;13.378;2023-03-04T02:40:32;9531.78;;;-146.10;100.00
12763;BME280;6445;52.490;13.378;2023-03-04T02:42:59;9278.50;;;-146.10;100.00
12763;BME280;6445;52.490;13.378;2023-03-04T02:45:45;9278.50;;;-146.10;100.00
12763;BME280;6445;52.490;13.378;2023-03-04T02:48:11;9278.50;;;-146.10;100.00
12763;BME280;6445;52.490;13.378;2023-03-04T02:50:41;9278.50;;;-146.10;100.00
12763;BME280;6445;52.490;13.378;2023-03-04T02:53:08;9278.50;;;-146.10;100.00
12763;BME280;6445;52.490;13.378;2023-03-04T02:55:33;9278.50;;;-146.10;100.00
12763;BME280;6445;52.490;13.378;2023-03-04T02:57:59;9531.78;;;-146.10;100.00
12763;BME280;6445;52.490;13.378;2023-03-04T03:00:24;9278.50;;;-146.10;100.00
12763;BME280;6445;52.490;13.378;2023-03-04T03:02:50;9278.50;;;-146.10;100.00
12763;BME280;6445;52.490;13.378;2023-03-04T03:05:15;8771.97;;;-146.10;100.00
12763;BME280;6445;52.490;13.378;2023-03-04T03:07:41;9025.22;;;-146.10;100.00
12763;BME280;6445;52.490;13.378;2023-03-04T03:10:06;8518.72;;;-146.10;100.00
12763;BME280;6445;52.490;13.378;2023-03-04T03:12:32;8518.72;;;-146.10;100.00
12763;BME280;6445;52.490;13.378;2023-03-04T03:14:57;8012.28;;;-146.10;100.00
12763;BME280;6445;52.490;13.378;2023-03-04T03:17:22;7759.09;;;-146.10;100.00
12763;BME280;6445;52.490;13.378;2023-03-04T03:19:47;7759.09;;;-146.10;100.00
12763;BME280;6445;52.490;13.378;2023-03-04T03:22:12;7252.75;;;-146.10;100.00
12763;BME280;6445;52.490;13.378;2023-03-04T03:24:38;6493.38;;;-146.10;100.00
12763;BME280;6445;52.490;13.378;2023-03-04T03:27:03;5987.19;;;-146.10;100.00
12763;BME280;6445;52.490;13.378;2023-03-04T03:29:28;4975.06;;;-146.10;100.00
12763;BME280;6445;52.490;13.378;2023-03-04T03:31:54;4216.13;;;-146.10;100.00
12763;BME280;6445;52.490;13.378;2023-03-04T03:34:20;3457.34;;;-146.10;100.00
12763;BME280;6445;52.490;13.378;2023-03-04T03:36:46;2951.56;;;-146.10;100.00
12763;BME280;6445;52.490;13.378;2023-03-04T03:39:11;1940.22;;;-146.10;100.00
12763;BME280;6445;52.490;13.378;2023-03-04T03:41:36;1434.66;;;-146.10;100.00
12763;BME280;6445;52.490;13.378;2023-03-04T03:44:01;1181.91;;;-146.10;100.00
12763;BME280;6445;52.490;13.378;2023-03-04T03:46:27;1181.91;;;-146.10;100.00
12763;BME280;6445;52.490;13.378;2023-03-04T03:48:52;676.41;;;-146.10;100.00
12763;BME280;6445;52.490;13.378;2023-03-04T03:51:17;171.00;;;-146.10;100.00
12763;BME280;6445;52.490;13.378;2023-03-04T03:53:42;-81.66;;;-146.10;100.00
12763;BME280;6445;52.490;13.378;2023-03-04T03:56:08;-334.34;;;-146.10;100.00
12763;BME280;6445;52.490;13.378;2023-03-04T03:58:33;-586.97;;;-146.10;100.00
12763;BME280;6445;52.490;13.378;2023-03-04T04:00:58;-839.59;;;-146.10;100.00
12763;BME280;6445;52.490;13.378;2023-03-04T04:03:24;-1092.22;;;-146.10;100.00
12763;BME280;6445;52.490;13.378;2023-03-04T04:05:49;-1344.81;;;-146.10;100.00
12763;BME280;6445;52.490;13.378;2023-03-04T04:08:15;-1597.41;;;-146.10;100.00
12763;BME280;6445;52.490;13.378;2023-03-04T04:10:41;-1849.97;;;-146.10;100.00
12763;BME280;6445;52.490;13.378;2023-03-04T04:13:07;-1849.97;;;-146.10;100.00
12763;BME280;6445;52.490;13.378;2023-03-04T04:15:32;-2102.50;;;-146.10;100.00
12763;BME280;6445;52.490;13.378;2023-03-04T04:17:58;-2102.50;;;-146.10;100.00
12763;BME280;6445;52.490;13.378;2023-03-04T04:20:23;-2355.03;;;-146.10;100.00
12763;BME280;6445;52.490;13.378;2023-03-04T04:22:48;-2355.03;;;-146.10;100.00
12763;BME280;6445;52.490;13.378;2023-03-04T04:25:15;-2607.53;;;-146.10;100.00
12763;BME280;6445;52.490;13.378;2023-03-04T04:27:40;-2607.53;;;-146.10;100.00
12763;BME280;6445;52.490;13.378;2023-03-04T04:30:06;-2860.03;;;-146.10;100.00
12763;BME280;6445;52.490;13.378;2023-03-04T04:32:31;-2860.03;;;-146.10;100.00
12763;BME280;6445;52.490;13.378;2023-03-04T04:34:56;-2860.03;;;-146.10;100.00
12763;BME280;6445;52.490;13.378;2023-03-04T04:37:21;-3112.53;;;-146.10;100.00
12763;BME280;6445;52.490;13.378;2023-03-04T04:39:47;-3112.53;;;-146.10;100.00
12763;BME280;6445;52.490;13.378;2023-03-04T04:42:12;-3112.53;;;-146.10;100.00
12763;BME280;6445;52.490;13.378;2023-03-04T04:44:37;-3365.00;;;-146.10;100.00
12763;BME280;6445;52.490;13.378;2023-03-04T04:47:03;-3617.44;;;-146.10;100.00
12763;BME280;6445;52.490;13.378;2023-03-04T04:49:30;-3617.44;;;-146.10;100.00
12763;BME280;6445;52.490;13.378;2023-03-04T04:51:55;-3869.88;;;-146.10;100.00
12763;BME280;6445;52.490;13.378;2023-03-04T04:54:20;-3869.88;;;-146.10;100.00
12763;BME280;6445;52.490;13.378;2023-03-04T04:56:46;-4122.28;;;-146.10;100.00
12763;BME280;6445;52.490;13.378;2023-03-04T04:59:11;-4122.28;;;-146.10;100.00
12763;BME280;6445;52.490;13.378;2023-03-04T05:01:36;-4374.69;;;-146.10;100.00
12763;BME280;6445;52.490;13.378;2023-03-04T05:04:01;-4374.69;;;-146.10;100.00
12763;BME280;6445;52.490;13.378;2023-03-04T05:06:27;-4374.69;;;-146.10;100.00
12763;BME280;6445;52.490;13.378;2023-03-04T05:08:52;-4627.06;;;-146.10;100.00
12763;BME280;6445;52.490;13.378;2023-03-04T05:11:18;-4374.69;;;-146.10;100.00
12763;BME280;6445;52.490;13.378;2023-03-04T05:13:43;-4374.69;;;-146.10;100.00
12763;BME280;6445;52.490;13.378;2023-03-04T05:16:08;-4374.69;;;-146.10;100.00
12763;BME280;6445;52.490;13.378;2023-03-04T05:18:34;-4122.28;;;-146.10;100.00
12763;BME280;6445;52.490;13.378;2023-03-04T05:21:01;-3869.88;;;-146.10;100.00
12763;BME280;6445;52.490;13.378;2023-03-04T05:23:32;-3869.88;;;-146.10;100.00
12763;BME280;6445;52.490;13.378;2023-03-04T05:25:58;-3617.44;;;-146.10;100.00
12763;BME280;6445;52.490;13.378;2023-03-04T05:28:23;-3617.44;;;-146.10;100.00
12763;BME280;6445;52.490;13.378;2023-03-04T05:30:48;-3869.88;;;-146.10;100.00
12763;BME280;6445;52.490;13.378;2023-03-04T05:33:15;-3869.88;;;-146.10;100.00
12763;BME280;6445;52.490;13.378;2023-03-04T05:35:41;-3869.88;;;-146.10;100.00
12763;BME280;6445;52.490;13.378;2023-03-04T05:38:09;-4122.28;;;-146.10;100.00
12763;BME280;6445;52.490;13.378;2023-03-04T05:40:34;-4122.28;;;-146.10;100.00
12763;BME280;6445;52.490;13.378;2023-03-04T05:43:00;-4374.69;;;-146.10;100.00
12763;BME280;6445;52.490;13.378;2023-03-04T05:45:26;-4374.69;;;-146.10;100.00
12763;BME280;6445;52.490;13.378;2023-03-04T05:47:52;-4879.41;;;-146.10;100.00
12763;BME280;6445;52.490;13.378;2023-03-04T05:50:18;-4879.41;;;-146.10;100.00
12763;BME280;6445;52.490;13.378;2023-03-04T05:52:44;-5131.78;;;-146.10;100.00
12763;BME280;6445;52.490;13.378;2023-03-04T05:55:09;-5384.09;;;-146.10;100.00
12763;BME280;6445;52.490;13.378;2023-03-04T05:57:35;-5384.09;;;-146.10;100.00
12763;BME280;6445;52.490;13.378;2023-03-04T06:00:00;-5636.41;;;-146.10;100.00
12763;BME280;6445;52.490;13.378;2023-03-04T06:02:25;-6141.00;;;-146.10;100.00
12763;BME280;6445;52.490;13.378;2023-03-04T06:04:51;-6393.25;;;-146.10;100.00
12763;BME280;6445;52.490;13.378;2023-03-04T06:07:16;-6897.75;;;-146.10;100.00
12763;BME280;6445;52.490;13.378;2023-03-04T06:09:41;-7402.16;;;-146.10;100.00
12763;BME280;6445;52.490;13.378;2023-03-04T06:12:09;-7149.94;;;-146.10;100.00
12763;BME280;6445;52.490;13.378;2023-03-04T06:14:35;-7654.34;;;-146.10;100.00
12763;BME280;6445;52.490;13.378;2023-03-04T06:17:00;-7906.50;;;-146.10;100.00
12763;BME280;6445;52.490;13.378;2023-03-04T06:19:25;-8158.66;;;-146.10;100.00
12763;BME280;6445;52.490;13.378;2023-03-04T06:21:50;-8410.78;;;-146.10;100.00
12763;BME280;6445;52.490;13.378;2023-03-04T06:24:16;-8662.91;;;-146.10;100.00
12763;BME280;6445;52.490;13.378;2023-03-04T06:26:41;-9167.06;;;-146.10;100.00
12763;BME280;6445;52.490;13.378;2023-03-04T06:29:06;-9419.13;;;-146.10;100.00
12763;BME280;6445;52.490;13.378;2023-03-04T06:31:31;-9671.19;;;-146.10;100.00
12763;BME280;6445;52.490;13.378;2023-03-04T06:33:57;-9923.22;;;-146.10;100.00
12763;BME280;6445;52.490;13.378;2023-03-04T06:36:22;-10175.25;;;-146.10;100.00
12763;BME280;6445;52.490;13.378;2023-03-04T06:38:47;-10427.25;;;-146.10;100.00
12763;BME280;6445;52.490;13.378;2023-03-04T06:41:12;-10931.19;;;-146.10;100.00
12763;BME280;6445;52.490;13.378;2023-03-04T06:43:38;-10931.19;;;-146.10;100.00
12763;BME280;6445;52.490;13.378;2023-03-04T06:46:07;-11183.13;;;-146.10;100.00
12763;BME280;6445;52.490;13.378;2023-03-04T06:48:33;-11435.06;;;-146.10;100.00
12763;BME280;6445;52.490;13.378;2023-03-04T06:51:04;-11687.00;;;-146.10;100.00
12763;BME280;6445;52.490;13.378;2023-03-04T06:53:30;-11938.88;;;-146.10;100.00
12763;BME280;6445;52.490;13.378;2023-03-04T06:55:55;-12190.78;;;-146.10;100.00
12763;BME280;6445;52.490;13.378;2023-03-04T06:58:20;-12442.63;;;-146.10;100.00
12763;BME280;6445;52.490;13.378;2023-03-04T07:00:45;-12442.63;;;-146.10;100.00
12763;BME280;6445;52.490;13.378;2023-03-04T07:03:11;-12442.63;;;-146.10;100.00
12763;BME280;6445;52.490;13.378;2023-03-04T07:05:37;-12694.50;;;-146.10;100.00
12763;BME280;6445;52.490;13.378;2023-03-04T07:08:02;-12694.50;;;-146.10;100.00
12763;BME280;6445;52.490;13.378;2023-03-04T07:10:28;-12695.97;;;-146.10;100.00
12763;BME280;6445;52.490;13.378;2023-03-04T07:12:53;-12695.97;;;-146.10;100.00
12763;BME280;6445;52.490;13.378;2023-03-04T07:15:18;-12695.97;;;-146.10;100.00
12763;BME280;6445;52.490;13.378;2023-03-04T07:17:44;-12695.97;;;-146.10;100.00
12763;BME280;6445;52.490;13.378;2023-03-04T07:20:09;-12695.97;;;-146.10;100.00
12763;BME280;6445;52.490;13.378;2023-03-04T07:22:35;-12695.97;;;-146.10;100.00
12763;BME280;6445;52.490;13.378;2023-03-04T07:25:00;-12695.97;;;-146.10;100.00
12763;BME280;6445;52.490;13.378;2023-03-04T07:27:25;-12695.97;;;-146.10;100.00
12763;BME280;6445;52.490;13.378;2023-03-04T07:29:50;-12695.97;;;-146.10;100.00
12763;BME280;6445;52.490;13.378;2023-03-04T07:32:16;-12695.97;;;-146.10;100.00
12763;BME280;6445;52.490;13.378;2023-03-04T07:34:41;-12695.97;;;-146.10;100.00
12763;BME280;6445;52.490;13.378;2023-03-04T07:37:06;-12695.97;;;-146.10;100.00
12763;BME280;6445;52.490;13.378;2023-03-04T07:39:31;-12695.97;;;-146.10;100.00
12763;BME280;6445;52.490;13.378;2023-03-04T07:41:57;-12695.97;;;-146.10;100.00
12763;BME280;6445;52.490;13.378;2023-03-04T07:44:22;-12695.97;;;-146.10;100.00
12763;BME280;6445;52.490;13.378;2023-03-04T07:46:47;-12695.97;;;-146.10;100.00
12763;BME280;6445;52.490;13.378;2023-03-04T07:49:13;-12695.97;;;-146.10;100.00
12763;BME280;6445;52.490;13.378;2023-03-04T07:51:38;-12695.97;;;-146.10;100.00
12763;BME280;6445;52.490;13.378;2023-03-04T07:54:04;-12695.97;;;-146.10;100.00
12763;BME280;6445;52.490;13.378;2023-03-04T07:56:31;-12695.97;;;-146.10;100.00
12763;BME280;6445;52.490;13.378;2023-03-04T07:58:57;-12695.97;;;-146.10;100.00
12763;BME280;6445;52.490;13.378;2023-03-04T08:01:26;-12695.97;;;-146.10;100.00
12763;BME280;6445;52.490;13.378;2023-03-04T08:03:52;-12695.97;;;-146.10;100.00
12763;BME280;6445;52.490;13.378;2023-03-04T08:06:18;-12695.97;;;-146.10;100.00
12763;BME280;6445;52.490;13.378;2023-03-04T08:08:44;-12695.97;;;-146.10;100.00
12763;BME280;6445;52.490;13.378;2023-03-04T08:11:12;-12695.97;;;-146.10;100.00
12763;BME280;6445;52.490;13.378;2023-03-04T08:13:38;-12695.97;;;-146.10;100.00
12763;BME280;6445;52.490;13.378;2023-03-04T08:16:04;-12695.97;;;-146.10;100.00
12763;BME280;6445;52.490;13.378;2023-03-04T08:18:29;-12695.97;;;-146.10;100.00
12763;BME280;6445;52.490;13.378;2023-03-04T08:20:55;-12695.97;;;-146.10;100.00
12763;BME280;6445;52.490;13.378;2023-03-04T08:23:20;-12695.97;;;-146.10;100.00
12763;BME280;6445;52.490;13.378;2023-03-04T08:25:46;-12695.97;;;-146.10;100.00
12763;BME280;6445;52.490;13.378;2023-03-04T08:28:12;-12695.97;;;-146.10;100.00
12763;BME280;6445;52.490;13.378;2023-03-04T08:30:38;-12694.50;;;-146.10;100.00
12763;BME280;6445;52.490;13.378;2023-03-04T08:33:04;-12442.63;;;-146.10;100.00
12763;BME280;6445;52.490;13.378;2023-03-04T08:35:30;-12190.78;;;-146.10;100.00
12763;BME280;6445;52.490;13.378;2023-03-04T08:37:55;-11938.88;;;-146.10;100.00
12763;BME280;6445;52.490;13.378;2023-03-04T08:40:20;-11435.06;;;-146.10;100.00
12763;BME280;6445;52.490;13.378;2023-03-04T08:42:45;-10931.19;;;-146.10;100.00
12763;BME280;6445;52.490;13.378;2023-03-04T08:45:11;-10175.25;;;-146.10;100.00
12763;BME280;6445;52.490;13.378;2023-03-04T08:47:37;-8662.91;;;-146.10;100.00
12763;BME280;6445;52.490;13.378;2023-03-04T08:50:04;-3112.53;;;-146.10;100.00
12763;BME280;6445;52.490;13.378;2023-03-04T08:52:29;1940.22;;;-146.10;100.00
12763;BME280;6445;52.490;13.378;2023-03-04T08:54:55;7505.91;;;-146.10;100.00
12763;BME280;6445;52.490;13.378;2023-03-04T08:57:20;9531.78;;;-146.10;100.00
12763;BME280;6445;52.490;13.378;2023-03-04T08:59:45;11305.28;;;-146.10;100.00
12763;BME280;6445;52.490;13.378;2023-03-04T09:02:11;11305.28;;;-146.10;100.00
12763;BME280;6445;52.490;13.378;2023-03-04T09:04:36;10798.50;;;-146.10;100.00
12763;BME280;6445;52.490;13.378;2023-03-04T09:07:01;13586.72;;;-146.10;100.00
12763;BME280;6445;52.490;13.378;2023-03-04T09:09:28;13840.28;;;-146.10;100.00
12763;BME280;6445;52.490;13.378;2023-03-04T09:11:53;14601.09;;;-146.10;100.00
12763;BME280;6445;52.490;13.378;2023-03-04T09:14:18;18939.03;;;-146.10;100.00
12763;BME280;6445;52.490;13.378;2023-03-04T09:16:44;23530.06;;;-146.10;100.00
12763;BME280;6445;52.490;13.378;2023-03-04T09:19:09;23927.28;;;-146.10;100.00
12763;BME280;6445;52.490;13.378;2023-03-04T09:21:34;25615.97;;;-146.10;100.00
12763;BME280;6445;52.490;13.378;2023-03-04T09:23:59;27653.28;;;-146.10;100.00
12763;BME280;6445;52.490;13.378;2023-03-04T09:26:27;30606.81;;;-146.10;100.00
12763;BME280;6445;52.490;13.378;2023-03-04T09:28:57;30216.84;;;-146.10;100.00
12763;BME280;6445;52.490;13.378;2023-03-04T09:31:24;32163.03;;;-146.10;100.00
12763;BME280;6445;52.490;13.378;2023-03-04T09:33:52;33397.28;;;-146.10;100.00
12763;BME280;6445;52.490;13.378;2023-03-04T09:36:18;36377.06;;;-146.10;100.00
12763;BME280;6445;52.490;13.378;2023-03-04T09:38:44;37060.56;;;-146.10;100.00
12763;BME280;6445;52.490;13.378;2023-03-04T09:41:15;39985.28;;;-146.10;100.00
12763;BME280;6445;52.490;13.378;2023-03-04T09:43:43;42215.66;;;-146.10;100.00
12763;BME280;6445;52.490;13.378;2023-03-04T09:46:12;43323.34;;;-146.10;100.00
12763;BME280;6445;52.490;13.378;2023-03-04T09:48:43;44463.28;;;-146.10;100.00
12763;BME280;6445;52.490;13.378;2023-03-04T09:54:10;46694.22;;;-146.10;100.00
12763;BME280;6445;52.490;13.378;2023-03-04T09:56:40;47643.28;;;-146.10;100.00
12763;BME280;6445;52.490;13.378;2023-03-04T09:59:23;48568.59;;;-146.10;100.00
12763;BME280;6445;52.490;13.378;2023-03-04T10:01:59;49148.28;;;-146.10;100.00
12763;BME280;6445;52.490;13.378;2023-03-04T10:04:38;49666.06;;;-146.10;100.00
12763;BME280;6445;52.490;13.378;2023-03-04T10:07:12;50145.94;;;-146.10;100.00
12763;BME280;6445;52.490;13.378;2023-03-04T10:09:46;50533.88;;;-146.10;100.00
12763;BME280;6445;52.490;13.378;2023-03-04T10:12:18;50973.84;;;-146.10;100.00
12763;BME280;6445;52.490;13.378;2023-03-04T10:14:58;51171.84;;;-146.10;100.00
12763;BME280;6445;52.490;13.378;2023-03-04T10:17:34;51475.88;;;-146.10;100.00
12763;BME280;6445;52.490;13.378;2023-03-04T10:20:22;52244.03;;;-146.10;100.00
12763;BME280;6445;52.490;13.378;2023-03-04T10:22:50;52156.00;;;-146.10;100.00
12763;BME280;6445;52.490;13.378;2023-03-04T10:25:23;52472.13;;;-146.10;100.00
12763;BME280;6445;52.490;13.378;2023-03-04T10:27:56;52386.09;;;-146.10;100.00
12763;BME280;6445;52.490;13.378;2023-03-04T10:30:40;52538.13;;;-146.10;100.00
12763;BME280;6445;52.490;13.378;2023-03-04T10:33:15;52814.25;;;-146.10;100.00
12763;BME280;6445;52.490;13.378;2023-03-04T10:35:45;52978.34;;;-146.10;100.00
12763;BME280;6445;52.490;13.378;2023-03-04T10:38:12;52544.13;;;-146.10;97.97
12763;BME280;6445;52.490;13.378;2023-03-04T10:40:40;52328.06;;;-146.10;95.49
12763;BME280;6445;52.490;13.378;2023-03-04T10:43:14;52049.97;;;-146.10;91.06
12763;BME280;6445;52.490;13.378;2023-03-04T10:45:40;51975.97;;;-146.10;88.11
12763;BME280;6445;52.490;13.378;2023-03-04T10:48:17;51883.94;;;-146.10;85.94
12763;BME280;6445;52.490;13.378;2023-03-04T10:50:43;51859.94;;;-146.10;81.41
12763;BME280;6445;52.490;13.378;2023-03-04T10:53:23;51851.94;;;-146.10;78.80
12763;BME280;6445;52.490;13.378;2023-03-04T10:55:49;51845.94;;;-146.10;76.25
12763;BME280;6445;52.490;13.378;2023-03-04T10:58:15;51819.94;;;-146.10;73.97
12763;BME280;6445;52.490;13.378;2023-03-04T11:00:43;51845.94;;;-146.10;73.91
12763;BME280;6445;52.490;13.378;2023-03-04T11:06:23;51871.94;;;-146.10;74.00
12763;BME280;6445;52.490;13.378;2023-03-04T11:08:56;51879.94;;;-146.10;73.42
12763;BME280;6445;52.490;13.378;2023-03-04T11:11:40;51879.94;;;-146.10;74.00
12763;BME280;6445;52.490;13.378;2023-03-04T11:14:22;51891.94;;;-146.10;72.38
12763;BME280;6445;52.490;13.378;2023-03-04T11:16:57;51885.94;;;-146.10;72.05
12763;BME280;6445;52.490;13.378;2023-03-04T11:19:28;51875.94;;;-146.10;72.62
12763;BME280;6445;52.490;13.378;2023-03-04T11:21:56;51885.94;;;-146.10;73.27
12763;BME280;6445;52.490;13.378;2023-03-04T11:24:25;51879.94;;;-146.10;71.70
12763;BME280;6445;52.490;13.378;2023-03-04T11:27:14;51907.94;;;-146.10;75.11
12763;BME280;6445;52.490;13.378;2023-03-04T11:32:50;51939.94;;;-146.10;76.57
12763;BME280;6445;52.490;13.378;2023-03-04T11:35:24;51967.97;;;-146.10;75.59
12763;BME280;6445;52.490;13.378;2023-03-04T11:38:19;51941.94;;;-146.10;76.22
12763;BME280;6445;52.490;13.378;2023-03-04T11:40:54;51929.94;;;-146.10;74.66
12763;BME280;6445;52.490;13.378;2023-03-04T11:43:29;51917.94;;;-146.10;74.19
12763;BME280;6445;52.490;13.378;2023-03-04T11:49:41;51951.97;;;-146.10;75.38
12763;BME280;6445;52.490;13.378;2023-03-04T11:57:40;51887.94;;;-146.10;69.97
12763;BME280;6445;52.490;13.378;2023-03-04T12:09:02;51867.94;;;-146.10;69.07
12763;BME280;6445;52.490;13.378;2023-03-04T12:11:59;51865.94;;;-146.10;69.18
12763;BME280;6445;52.490;13.378;2023-03-04T12:14:34;51867.94;;;-146.10;69.32
12763;BME280;6445;52.490;13.378;2023-03-04T12:23:10;51863.94;;;-146.10;67.25
12763;BME280;6445;52.490;13.378;2023-03-04T12:26:00;51849.94;;;-146.10;66.59
12763;BME280;6445;52.490;13.378;2023-03-04T12:31:20;51849.94;;;-146.10;64.25
12763;BME280;6445;52.490;13.378;2023-03-04T12:40:14;51837.94;;;-146.10;64.29
12763;BME280;6445;52.490;13.378;2023-03-04T12:45:54;51841.94;;;-146.10;66.82
12763;BME280;6445;52.490;13.378;2023-03-04T12:48:39;51853.94;;;-146.10;67.48
12763;BME280;6445;52.490;13.378;2023-03-04T12:51:15;51859.94;;;-146.10;66.38
12763;BME280;6445;52.490;13.378;2023-03-04T12:56:49;51849.94;;;-146.10;64.35
12763;BME280;6445;52.490;13.378;2023-03-04T12:59:18;51849.94;;;-146.10;64.70
12763;BME280;6445;52.490;13.378;2023-03-04T13:01:55;51867.94;;;-146.10;64.27
12763;BME280;6445;52.490;13.378;2023-03-04T13:04:42;51867.94;;;-146.10;65.43
12763;BME280;6445;52.490;13.378;2023-03-04T13:07:59;51845.94;;;-146.10;65.58
12763;BME280;6445;52.490;13.378;2023-03-04T13:10:28;51839.94;;;-146.10;64.00
12763;BME280;6445;52.490;13.378;2023-03-04T13:12:58;51845.94;;;-146.10;63.51
12763;BME280;6445;52.490;13.378;2023-03-04T13:18:00;51845.94;;;-146.10;64.40
12763;BME280;6445;52.490;13.378;2023-03-04T13:23:02;51831.94;;;-146.10;64.52
12763;BME280;6445;52.490;13.378;2023-03-04T13:51:33;51845.94;;;-146.10;66.51
12763;BME280;6445;52.490;13.378;2023-03-04T13:57:21;51845.94;;;-146.10;66.11
12763;BME280;6445;52.490;13.378;2023-03-04T13:59:40;51843.94;;;-146.10;66.03
12763;BME280;6445;52.490;13.378;2023-03-04T14:02:15;51861.94;;;-146.10;65.88